Time;durP1;ratioP1;P1;durP2;ratioP2;P2;SDS_P1;SDS_P2;PMS_P1;PMS_P2;Temp;Humidity;BMP_temperature;BMP_pressure;BME280_temperature;BME280_humidity;BME280_pressure;Samples;Min_cycle;Max_cycle;Signal;HPM_P1;HPM_P2
2023/06/02 00:00:49;;;;;;;24.43;22.67;;;;;;;;;;5076477;28;20440;-80
2023/06/02 00:03:17;;;;;;;23.80;22.10;;;;;;;;;;5077400;28;20497;-80
2023/06/02 00:05:46;;;;;;;24.87;22.97;;;;;;;;;;5075877;28;20891;-81
2023/06/02 00:08:15;;;;;;;24.50;22.87;;;;;;;;;;5077066;28;20465;-79
2023/06/02 00:10:41;;;;;;;25.27;22.80;;;;;;;;;;5077148;28;20836;-81
2023/06/02 00:13:10;;;;;;;25.37;22.73;;;;;;;;;;5077163;28;20509;-79
2023/06/02 00:15:40;;;;;;;25.13;22.97;;;;;;;;;;5075854;28;20432;-80
2023/06/02 00:18:07;;;;;;;24.27;22.33;;;;;;;;;;5077168;28;20450;-81
2023/06/02 00:20:34;;;;;;;23.80;22.20;;;;;;;;;;5077080;28;20477;-81
2023/06/02 00:23:01;;;;;;;23.20;21.70;;;;;;;;;;5076831;28;21002;-80
2023/06/02 00:25:29;;;;;;;24.87;22.93;;;;;;;;;;5075967;28;20570;-79
2023/06/02 00:27:56;;;;;;;25.30;23.70;;;;;;;;;;5076592;28;20430;-80
2023/06/02 00:30:24;;;;;;;25.33;22.93;;;;;;;;;;5076501;28;20524;-79
2023/06/02 00:32:51;;;;;;;26.90;24.63;;;;;;;;;;5076039;28;20426;-80
2023/06/02 00:35:18;;;;;;;24.93;23.03;;;;;;;;;;5076483;28;20442;-80
2023/06/02 00:37:46;;;;;;;25.33;23.40;;;;;;;;;;5076146;28;20486;-80
2023/06/02 00:40:13;;;;;;;25.70;23.70;;;;;;;;;;5077756;28;20496;-79
2023/06/02 00:42:40;;;;;;;23.70;22.13;;;;;;;;;;5079702;28;20454;-81
2023/06/02 00:45:08;;;;;;;24.80;22.87;;;;;;;;;;5078922;28;20477;-82
2023/06/02 00:47:36;;;;;;;24.93;22.97;;;;;;;;;;5078543;28;20469;-81
2023/06/02 00:50:03;;;;;;;23.90;22.40;;;;;;;;;;5079290;28;20463;-81
2023/06/02 00:52:32;;;;;;;25.33;23.23;;;;;;;;;;5089122;28;20460;-78
2023/06/02 00:54:59;;;;;;;26.57;24.17;;;;;;;;;;5094509;28;20460;-78
2023/06/02 00:57:28;;;;;;;24.50;22.63;;;;;;;;;;5091439;28;20465;-81
2023/06/02 00:59:56;;;;;;;25.30;22.90;;;;;;;;;;5079570;28;20480;-80
2023/06/02 01:02:23;;;;;;;25.47;23.40;;;;;;;;;;5079454;28;20449;-82
2023/06/02 01:04:52;;;;;;;25.67;23.10;;;;;;;;;;5080170;28;20450;-81
2023/06/02 01:07:23;;;;;;;24.40;22.60;;;;;;;;;;5078780;28;20492;-80
2023/06/02 01:09:51;;;;;;;25.40;23.33;;;;;;;;;;5079002;28;20494;-79
2023/06/02 01:12:18;;;;;;;24.10;22.10;;;;;;;;;;5078263;28;20448;-80
2023/06/02 01:14:45;;;;;;;24.17;21.93;;;;;;;;;;5078861;28;20433;-80
2023/06/02 01:17:13;;;;;;;24.00;22.20;;;;;;;;;;5077499;28;20469;-80
2023/06/02 01:19:40;;;;;;;23.87;22.07;;;;;;;;;;5078038;28;20466;-81
2023/06/02 01:22:10;;;;;;;24.30;22.13;;;;;;;;;;5077909;28;20984;-80
2023/06/02 01:24:39;;;;;;;24.77;22.60;;;;;;;;;;5078111;28;20454;-80
2023/06/02 01:27:07;;;;;;;23.93;21.90;;;;;;;;;;5077088;28;20500;-80
2023/06/02 01:29:35;;;;;;;24.50;22.83;;;;;;;;;;5077947;28;20458;-80
2023/06/02 01:32:04;;;;;;;24.10;21.93;;;;;;;;;;5077331;28;20533;-79
2023/06/02 01:34:33;;;;;;;24.17;21.60;;;;;;;;;;5077352;28;20930;-80
2023/06/02 01:37:01;;;;;;;24.73;23.03;;;;;;;;;;5077428;28;20416;-80
2023/06/02 01:39:28;;;;;;;24.23;22.43;;;;;;;;;;5076705;28;20497;-80
2023/06/02 01:41:58;;;;;;;23.90;22.03;;;;;;;;;;5077458;28;20442;-82
2023/06/02 01:44:25;;;;;;;27.97;22.27;;;;;;;;;;5077315;28;20446;-81
2023/06/02 01:46:52;;;;;;;24.40;22.10;;;;;;;;;;5076169;28;20489;-81
2023/06/02 01:49:19;;;;;;;24.27;22.60;;;;;;;;;;5076048;28;20466;-82
2023/06/02 01:51:46;;;;;;;24.40;22.40;;;;;;;;;;5076960;28;20825;-81
2023/06/02 01:54:13;;;;;;;25.50;23.50;;;;;;;;;;5077038;28;20508;-87
2023/06/02 01:56:41;;;;;;;24.47;22.77;;;;;;;;;;5076232;28;20442;-81
2023/06/02 01:59:09;;;;;;;23.57;21.70;;;;;;;;;;5076080;28;20458;-82
2023/06/02 02:01:40;;;;;;;26.13;23.83;;;;;;;;;;5076309;28;20488;-81
2023/06/02 02:04:07;;;;;;;23.33;21.93;;;;;;;;;;5075670;28;20420;-82
2023/06/02 02:06:34;;;;;;;25.30;23.00;;;;;;;;;;5075603;28;21025;-82
2023/06/02 02:09:03;;;;;;;24.10;22.43;;;;;;;;;;5075469;28;20470;-81
2023/06/02 02:11:30;;;;;;;24.37;22.50;;;;;;;;;;5075469;28;20505;-82
2023/06/02 02:13:57;;;;;;;26.53;23.97;;;;;;;;;;5075866;28;20450;-82
2023/06/02 02:16:27;;;;;;;24.47;23.03;;;;;;;;;;5075847;28;20445;-82
2023/06/02 02:18:57;;;;;;;24.30;22.17;;;;;;;;;;5075479;28;20449;-81
2023/06/02 02:21:24;;;;;;;25.03;23.03;;;;;;;;;;5075826;28;20474;-81
2023/06/02 02:23:51;;;;;;;25.57;23.43;;;;;;;;;;5078844;28;20503;-81
2023/06/02 02:26:18;;;;;;;25.97;23.93;;;;;;;;;;5079189;28;20474;-81
2023/06/02 02:28:45;;;;;;;25.17;23.30;;;;;;;;;;5079435;28;20489;-81
2023/06/02 02:31:12;;;;;;;24.80;22.70;;;;;;;;;;5078477;28;20477;-81
2023/06/02 02:33:41;;;;;;;24.57;22.77;;;;;;;;;;5078378;28;20432;-80
2023/06/02 02:36:08;;;;;;;24.53;22.30;;;;;;;;;;5078195;28;20450;-81
2023/06/02 02:38:35;;;;;;;25.20;22.97;;;;;;;;;;5078761;28;20454;-81
2023/06/02 02:41:02;;;;;;;24.87;22.80;;;;;;;;;;5078052;28;20460;-81
2023/06/02 02:43:29;;;;;;;24.83;22.93;;;;;;;;;;5078297;28;20466;-81
2023/06/02 02:45:56;;;;;;;23.93;22.07;;;;;;;;;;5077931;28;20464;-81
2023/06/02 02:48:23;;;;;;;26.63;24.30;;;;;;;;;;5078487;28;20450;-81
2023/06/02 02:50:51;;;;;;;26.40;23.80;;;;;;;;;;5077672;28;20485;-81
2023/06/02 02:53:18;;;;;;;28.00;25.47;;;;;;;;;;5078049;28;20445;-81
2023/06/02 02:55:45;;;;;;;25.40;23.30;;;;;;;;;;5077702;28;20450;-81
2023/06/02 02:58:16;;;;;;;26.17;23.90;;;;;;;;;;5077771;28;20424;-80
2023/06/02 03:00:43;;;;;;;24.70;22.70;;;;;;;;;;5077997;28;20489;-79
2023/06/02 03:03:10;;;;;;;24.73;22.77;;;;;;;;;;5078331;28;20812;-81
2023/06/02 03:05:37;;;;;;;24.67;22.30;;;;;;;;;;5077932;28;20421;-81
2023/06/02 03:08:07;;;;;;;24.40;22.07;;;;;;;;;;5078414;28;20503;-81
2023/06/02 03:10:34;;;;;;;24.97;23.07;;;;;;;;;;5077239;28;20477;-80
2023/06/02 03:13:01;;;;;;;24.17;22.17;;;;;;;;;;5078327;28;20430;-81
2023/06/02 03:15:28;;;;;;;25.50;23.13;;;;;;;;;;5077640;28;20446;-80
2023/06/02 03:17:57;;;;;;;26.17;23.83;;;;;;;;;;5078044;28;20842;-81
2023/06/02 03:20:25;;;;;;;26.07;24.00;;;;;;;;;;5077471;28;20482;-81
2023/06/02 03:22:52;;;;;;;24.63;22.83;;;;;;;;;;5077026;28;20436;-81
2023/06/02 03:25:21;;;;;;;25.47;23.77;;;;;;;;;;5078378;28;20868;-80
2023/06/02 03:27:48;;;;;;;26.17;23.90;;;;;;;;;;5077266;28;20506;-81
2023/06/02 03:30:15;;;;;;;23.60;22.00;;;;;;;;;;5077249;28;20493;-81
2023/06/02 03:32:42;;;;;;;26.37;23.77;;;;;;;;;;5077059;28;20516;-81
2023/06/02 03:35:09;;;;;;;25.83;23.83;;;;;;;;;;5076808;28;20507;-80
2023/06/02 03:37:36;;;;;;;25.20;23.40;;;;;;;;;;5076570;28;20534;-81
2023/06/02 03:40:05;;;;;;;25.00;23.10;;;;;;;;;;5076443;28;20835;-81
2023/06/02 03:42:34;;;;;;;25.90;23.67;;;;;;;;;;5077044;28;20462;-80
2023/06/02 03:45:01;;;;;;;25.37;23.57;;;;;;;;;;5076886;28;20421;-81
2023/06/02 03:47:29;;;;;;;24.23;21.93;;;;;;;;;;5074846;28;20481;-77
2023/06/02 03:49:56;;;;;;;25.43;23.20;;;;;;;;;;5074391;28;20444;-77
2023/06/02 03:52:24;;;;;;;23.97;22.37;;;;;;;;;;5073661;28;20575;-78
2023/06/02 03:54:52;;;;;;;25.33;22.70;;;;;;;;;;5074444;28;20443;-77
2023/06/02 03:57:19;;;;;;;26.57;22.47;;;;;;;;;;5073635;28;20445;-78
2023/06/02 03:59:48;;;;;;;25.27;22.90;;;;;;;;;;5073862;28;20469;-78
2023/06/02 04:02:15;;;;;;;23.80;22.10;;;;;;;;;;5073937;28;20453;-77
2023/06/02 04:04:42;;;;;;;23.67;22.07;;;;;;;;;;5073567;28;20441;-78
2023/06/02 04:07:09;;;;;;;24.13;22.20;;;;;;;;;;5073895;28;20485;-78
2023/06/02 04:09:36;;;;;;;24.67;22.50;;;;;;;;;;5074477;28;20527;-78
2023/06/02 04:12:03;;;;;;;23.67;21.80;;;;;;;;;;5074091;28;20439;-77
2023/06/02 04:14:31;;;;;;;24.23;22.40;;;;;;;;;;5073366;28;20462;-78
2023/06/02 04:16:59;;;;;;;23.07;21.37;;;;;;;;;;5073794;28;20441;-77
2023/06/02 04:19:26;;;;;;;23.83;21.77;;;;;;;;;;5073904;28;20459;-77
2023/06/02 04:21:53;;;;;;;23.90;21.87;;;;;;;;;;5073713;28;20459;-77
2023/06/02 04:24:20;;;;;;;23.50;21.80;;;;;;;;;;5073409;28;20470;-78
2023/06/02 04:26:47;;;;;;;25.83;23.70;;;;;;;;;;5073349;28;20482;-79
2023/06/02 04:29:14;;;;;;;24.50;22.40;;;;;;;;;;5073946;28;20495;-78
2023/06/02 04:31:42;;;;;;;25.43;22.80;;;;;;;;;;5073538;28;20450;-77
2023/06/02 04:34:12;;;;;;;23.33;21.70;;;;;;;;;;5073319;28;20461;-77
2023/06/02 04:36:39;;;;;;;25.23;22.90;;;;;;;;;;5073355;28;20416;-78
2023/06/02 04:39:07;;;;;;;24.00;22.00;;;;;;;;;;5073346;28;20487;-77
2023/06/02 04:41:34;;;;;;;23.73;22.13;;;;;;;;;;5073003;28;20450;-77
2023/06/02 04:44:01;;;;;;;25.17;23.37;;;;;;;;;;5073235;28;20465;-77
2023/06/02 04:46:28;;;;;;;23.23;21.43;;;;;;;;;;5071753;28;20460;-78
2023/06/02 04:48:56;;;;;;;25.60;23.70;;;;;;;;;;5073632;28;20446;-77
2023/06/02 04:51:28;;;;;;;24.73;23.03;;;;;;;;;;5073502;28;20559;-77
2023/06/02 04:53:55;;;;;;;24.17;22.17;;;;;;;;;;5072588;28;20873;-77
2023/06/02 04:56:23;;;;;;;24.83;22.70;;;;;;;;;;5073014;28;20430;-77
2023/06/02 04:58:50;;;;;;;24.33;22.37;;;;;;;;;;5073670;28;20782;-78
2023/06/02 05:01:17;;;;;;;25.50;23.70;;;;;;;;;;5073295;28;20515;-77
2023/06/02 05:03:44;;;;;;;24.10;22.20;;;;;;;;;;5073618;28;20462;-77
2023/06/02 05:06:11;;;;;;;23.30;21.50;;;;;;;;;;5072871;28;20535;-79
2023/06/02 05:08:40;;;;;;;24.00;22.13;;;;;;;;;;5073823;28;20504;-78
2023/06/02 05:11:07;;;;;;;24.73;22.57;;;;;;;;;;5076154;28;20812;-78
2023/06/02 05:13:34;;;;;;;23.97;22.10;;;;;;;;;;5080419;28;20944;-77
2023/06/02 05:16:02;;;;;;;23.50;21.53;;;;;;;;;;5080629;28;20837;-79
2023/06/02 05:18:30;;;;;;;25.20;23.00;;;;;;;;;;5074646;28;20766;-79
2023/06/02 05:20:57;;;;;;;24.80;22.90;;;;;;;;;;5074229;28;20466;-79
2023/06/02 05:23:24;;;;;;;23.83;22.10;;;;;;;;;;5074403;28;20478;-78
2023/06/02 05:25:53;;;;;;;24.23;22.40;;;;;;;;;;5073598;28;20465;-78
2023/06/02 05:28:20;;;;;;;24.67;22.57;;;;;;;;;;5074545;28;20477;-78
2023/06/02 05:30:47;;;;;;;24.73;22.90;;;;;;;;;;5073978;28;20539;-78
2023/06/02 05:33:14;;;;;;;24.23;21.80;;;;;;;;;;5074149;28;20531;-78
2023/06/02 05:35:41;;;;;;;23.67;22.03;;;;;;;;;;5073145;28;20461;-78
2023/06/02 05:38:08;;;;;;;23.73;22.00;;;;;;;;;;5073897;28;20453;-78
2023/06/02 05:40:35;;;;;;;24.47;22.27;;;;;;;;;;5073947;28;20495;-78
2023/06/02 05:43:03;;;;;;;24.23;22.43;;;;;;;;;;5073636;28;20446;-78
2023/06/02 05:45:30;;;;;;;25.00;22.80;;;;;;;;;;5073128;28;20970;-78
2023/06/02 05:47:57;;;;;;;24.87;22.60;;;;;;;;;;5073617;28;20970;-78
2023/06/02 05:50:24;;;;;;;23.80;22.30;;;;;;;;;;5073193;28;20465;-78
2023/06/02 05:52:51;;;;;;;24.10;22.17;;;;;;;;;;5073050;28;20450;-77
2023/06/02 05:55:18;;;;;;;24.13;22.20;;;;;;;;;;5073393;28;20449;-78
2023/06/02 05:57:45;;;;;;;24.30;22.80;;;;;;;;;;5073159;28;20954;-78
2023/06/02 06:00:15;;;;;;;23.27;21.83;;;;;;;;;;5076847;28;20452;-78
2023/06/02 06:02:42;;;;;;;24.37;22.37;;;;;;;;;;5076642;28;20499;-78
2023/06/02 06:05:09;;;;;;;24.10;22.40;;;;;;;;;;5077251;28;20445;-78
2023/06/02 06:07:36;;;;;;;23.93;22.00;;;;;;;;;;5075346;28;20485;-78
2023/06/02 06:10:03;;;;;;;24.57;22.53;;;;;;;;;;5076852;28;20440;-78
2023/06/02 06:12:30;;;;;;;23.53;21.63;;;;;;;;;;5077037;28;20921;-77
2023/06/02 06:14:57;;;;;;;23.20;21.80;;;;;;;;;;5076830;28;20449;-78
2023/06/02 06:17:26;;;;;;;24.33;22.07;;;;;;;;;;5075318;28;20466;-77
2023/06/02 06:19:53;;;;;;;24.30;22.37;;;;;;;;;;5076203;28;20474;-78
2023/06/02 06:22:20;;;;;;;23.50;21.80;;;;;;;;;;5076292;28;20449;-77
2023/06/02 06:24:47;;;;;;;23.93;21.73;;;;;;;;;;5076232;28;20442;-78
2023/06/02 06:27:14;;;;;;;23.90;21.50;;;;;;;;;;5075585;28;20937;-84
2023/06/02 06:29:41;;;;;;;23.17;21.33;;;;;;;;;;5076088;28;20504;-78
2023/06/02 06:32:08;;;;;;;25.10;23.23;;;;;;;;;;5076199;28;20512;-78
2023/06/02 06:34:36;;;;;;;23.60;21.67;;;;;;;;;;5075805;28;20960;-78
2023/06/02 06:37:03;;;;;;;24.10;22.07;;;;;;;;;;5075628;28;20449;-77
2023/06/02 06:39:30;;;;;;;25.57;23.47;;;;;;;;;;5075073;28;20472;-78
2023/06/02 06:41:57;;;;;;;24.37;22.03;;;;;;;;;;5075638;28;20474;-79
2023/06/02 06:44:24;;;;;;;23.83;21.53;;;;;;;;;;5075519;28;21013;-78
2023/06/02 06:46:51;;;;;;;23.83;22.30;;;;;;;;;;5075234;28;20993;-77
2023/06/02 06:49:18;;;;;;;24.23;22.53;;;;;;;;;;5075524;28;20458;-77
2023/06/02 06:51:47;;;;;;;25.37;23.03;;;;;;;;;;5076637;28;20454;-77
2023/06/02 06:54:15;;;;;;;24.50;22.67;;;;;;;;;;5076008;28;20433;-77
2023/06/02 06:56:43;;;;;;;24.13;22.43;;;;;;;;;;5075212;28;20536;-77
2023/06/02 06:59:10;;;;;;;25.90;23.47;;;;;;;;;;5075581;28;20477;-77
2023/06/02 07:01:37;;;;;;;24.63;22.83;;;;;;;;;;5075574;28;20449;-78
2023/06/02 07:04:04;;;;;;;26.20;23.77;;;;;;;;;;5075688;28;20498;-77
2023/06/02 07:06:32;;;;;;;24.90;22.83;;;;;;;;;;5075582;28;20445;-79
2023/06/02 07:09:00;;;;;;;23.97;21.87;;;;;;;;;;5074937;28;20949;-78
2023/06/02 07:11:27;;;;;;;24.37;22.43;;;;;;;;;;5075471;28;20821;-78
2023/06/02 07:13:54;;;;;;;25.40;23.13;;;;;;;;;;5075921;28;20429;-78
2023/06/02 07:16:21;;;;;;;28.30;23.53;;;;;;;;;;5075596;28;20479;-78
2023/06/02 07:18:48;;;;;;;26.07;23.43;;;;;;;;;;5075845;28;20421;-78
2023/06/02 07:21:15;;;;;;;25.57;23.37;;;;;;;;;;5074796;28;20537;-77
2023/06/02 07:23:42;;;;;;;25.47;23.67;;;;;;;;;;5076800;28;20469;-77
2023/06/02 07:26:10;;;;;;;24.70;22.90;;;;;;;;;;5076059;28;20456;-82
2023/06/02 07:28:39;;;;;;;24.70;22.60;;;;;;;;;;5077987;28;20448;-77
2023/06/02 07:31:06;;;;;;;25.10;23.10;;;;;;;;;;5075946;28;20448;-84
2023/06/02 07:33:33;;;;;;;25.60;23.63;;;;;;;;;;5073671;28;20428;-77
2023/06/02 07:36:00;;;;;;;24.30;22.37;;;;;;;;;;5074384;28;20491;-77
2023/06/02 07:38:27;;;;;;;25.23;23.47;;;;;;;;;;5074304;28;20500;-77
2023/06/02 07:40:54;;;;;;;23.00;21.40;;;;;;;;;;5073992;28;20532;-78
2023/06/02 07:43:22;;;;;;;23.50;21.50;;;;;;;;;;5074599;28;21025;-86
2023/06/02 07:45:49;;;;;;;25.00;22.90;;;;;;;;;;5074600;28;20412;-77
2023/06/02 07:48:16;;;;;;;24.50;22.63;;;;;;;;;;5075202;28;20529;-77
2023/06/02 07:50:44;;;;;;;23.60;21.70;;;;;;;;;;5074636;28;20882;-78
2023/06/02 07:53:11;;;;;;;24.57;22.23;;;;;;;;;;5073375;28;20424;-76
2023/06/02 07:55:38;;;;;;;24.80;22.57;;;;;;;;;;5071976;28;20492;-76
2023/06/02 07:58:05;;;;;;;25.10;22.90;;;;;;;;;;5074002;28;20409;-79
2023/06/02 08:00:33;;;;;;;26.17;23.77;;;;;;;;;;5074300;28;20441;-78
2023/06/02 08:03:01;;;;;;;26.23;24.17;;;;;;;;;;5074195;28;20457;-77
2023/06/02 08:05:28;;;;;;;24.13;22.30;;;;;;;;;;5074066;28;20424;-81
2023/06/02 08:07:55;;;;;;;24.60;22.67;;;;;;;;;;5075441;28;20482;-83
2023/06/02 08:10:22;;;;;;;25.17;22.83;;;;;;;;;;5075113;28;20428;-82
2023/06/02 08:12:49;;;;;;;24.90;22.80;;;;;;;;;;5074075;28;20421;-76
2023/06/02 08:15:16;;;;;;;26.20;24.07;;;;;;;;;;5075086;28;20515;-82
2023/06/02 08:17:45;;;;;;;23.87;21.97;;;;;;;;;;5073678;28;20433;-81
2023/06/02 08:20:12;;;;;;;26.17;23.60;;;;;;;;;;5074711;28;20863;-82
2023/06/02 08:22:40;;;;;;;23.80;22.00;;;;;;;;;;5075074;28;20442;-83
2023/06/02 08:25:08;;;;;;;25.10;23.20;;;;;;;;;;5074731;28;20405;-82
2023/06/02 08:27:36;;;;;;;26.13;23.50;;;;;;;;;;5074434;28;20598;-81
2023/06/02 08:30:05;;;;;;;26.03;23.90;;;;;;;;;;5074800;28;20557;-81
2023/06/02 08:32:32;;;;;;;25.00;23.13;;;;;;;;;;5075179;28;20441;-81
2023/06/02 08:35:01;;;;;;;25.93;23.67;;;;;;;;;;5074812;28;20448;-83
2023/06/02 08:37:29;;;;;;;26.83;24.77;;;;;;;;;;5073730;28;20525;-83
2023/06/02 08:39:57;;;;;;;25.73;23.53;;;;;;;;;;5074840;28;20440;-82
2023/06/02 08:42:24;;;;;;;25.43;23.43;;;;;;;;;;5074329;28;20879;-82
2023/06/02 08:44:51;;;;;;;25.70;23.47;;;;;;;;;;5073900;28;20462;-80
2023/06/02 08:47:19;;;;;;;26.23;24.10;;;;;;;;;;5073436;28;20444;-81
2023/06/02 08:49:47;;;;;;;24.80;22.73;;;;;;;;;;5074142;28;20528;-82
2023/06/02 08:52:16;;;;;;;25.23;23.13;;;;;;;;;;5074595;28;20478;-81
2023/06/02 08:54:44;;;;;;;25.97;23.60;;;;;;;;;;5074806;28;20431;-83
2023/06/02 08:57:12;;;;;;;26.53;24.30;;;;;;;;;;5073307;28;20451;-76
2023/06/02 08:59:40;;;;;;;25.83;23.40;;;;;;;;;;5072405;28;20461;-76
2023/06/02 09:02:07;;;;;;;25.37;23.10;;;;;;;;;;5072755;28;20471;-76
2023/06/02 09:04:35;;;;;;;26.60;24.27;;;;;;;;;;5070311;28;20965;-83
2023/06/02 09:07:17;;;;;;;25.00;22.80;;;;;;;;;;5075292;28;20454;-83
2023/06/02 09:09:47;;;;;;;25.97;23.83;;;;;;;;;;5073860;28;20581;-82
2023/06/02 09:12:14;;;;;;;24.77;22.97;;;;;;;;;;5076017;28;20444;-83
2023/06/02 09:14:42;;;;;;;25.80;23.30;;;;;;;;;;5076783;28;20434;-83
2023/06/02 09:17:24;;;;;;;25.33;22.87;;;;;;;;;;5075123;28;20433;-81
2023/06/02 09:19:52;;;;;;;26.23;23.93;;;;;;;;;;5074443;28;20904;-85
2023/06/02 09:22:18;;;;;;;26.03;23.53;;;;;;;;;;5076291;28;20943;-75
2023/06/02 09:24:47;;;;;;;25.63;23.63;;;;;;;;;;5072856;28;20449;-76
2023/06/02 09:27:14;;;;;;;26.63;24.17;;;;;;;;;;5074409;28;20447;-84
2023/06/02 09:29:42;;;;;;;25.03;22.93;;;;;;;;;;5073829;28;20528;-83
2023/06/02 09:32:12;;;;;;;25.13;22.90;;;;;;;;;;5092568;28;20402;-82
2023/06/02 09:34:39;;;;;;;26.37;23.77;;;;;;;;;;5098334;28;20452;-83
2023/06/02 09:37:10;;;;;;;25.60;23.40;;;;;;;;;;5088730;28;20481;-82
2023/06/02 09:39:41;;;;;;;24.97;22.80;;;;;;;;;;5079660;28;20454;-79
2023/06/02 09:42:10;;;;;;;26.90;24.20;;;;;;;;;;5078419;28;20473;-82
2023/06/02 09:44:37;;;;;;;25.90;23.60;;;;;;;;;;5078769;28;20428;-82
2023/06/02 09:47:19;;;;;;;26.33;24.23;;;;;;;;;;5077849;28;20433;-85
2023/06/02 09:49:46;;;;;;;26.20;23.93;;;;;;;;;;5075240;28;20458;-79
2023/06/02 09:52:14;;;;;;;26.67;24.53;;;;;;;;;;5076315;28;20446;-75
2023/06/02 09:54:41;;;;;;;26.90;24.80;;;;;;;;;;5076417;28;20497;-75
2023/06/02 09:57:10;;;;;;;26.87;24.67;;;;;;;;;;5075432;28;20442;-76
2023/06/02 09:59:38;;;;;;;25.90;23.57;;;;;;;;;;5075766;28;20928;-76
2023/06/02 10:02:05;;;;;;;26.27;24.10;;;;;;;;;;5076535;28;20470;-86
2023/06/02 10:04:32;;;;;;;27.30;25.10;;;;;;;;;;5077716;28;20455;-76
2023/06/02 10:07:06;;;;;;;27.87;25.20;;;;;;;;;;5075626;28;20503;-76
2023/06/02 10:09:40;;;;;;;26.17;24.07;;;;;;;;;;5073486;28;20825;-76
2023/06/02 10:12:14;;;;;;;27.37;25.03;;;;;;;;;;5075884;28;20886;-76
2023/06/02 10:15:08;;;;;;;27.67;25.00;;;;;;;;;;5075724;28;20469;-76
2023/06/02 10:17:38;;;;;;;26.63;24.23;;;;;;;;;;5074827;28;20870;-76
2023/06/02 10:20:17;;;;;;;26.40;24.00;;;;;;;;;;5075054;28;20443;-75
2023/06/02 10:22:54;;;;;;;28.00;25.00;;;;;;;;;;5075094;28;20467;-76
2023/06/02 10:25:26;;;;;;;27.03;24.77;;;;;;;;;;5075634;28;20453;-76
2023/06/02 10:27:55;;;;;;;26.07;23.93;;;;;;;;;;5075270;28;20413;-76
2023/06/02 10:30:22;;;;;;;27.43;25.43;;;;;;;;;;5075022;28;20468;-76
2023/06/02 10:32:50;;;;;;;28.43;25.93;;;;;;;;;;5074940;28;20857;-76
2023/06/02 10:35:17;;;;;;;26.10;24.20;;;;;;;;;;5075537;28;20418;-75
2023/06/02 10:37:45;;;;;;;25.07;23.33;;;;;;;;;;5074698;28;20439;-76
2023/06/02 10:40:14;;;;;;;27.30;25.27;;;;;;;;;;5074396;28;20492;-76
2023/06/02 10:43:02;;;;;;;26.60;24.57;;;;;;;;;;5074475;28;20547;-76
2023/06/02 10:45:41;;;;;;;27.63;25.47;;;;;;;;;;5074213;28;20473;-75
2023/06/02 10:48:26;;;;;;;28.57;26.07;;;;;;;;;;5075057;28;20421;-75
2023/06/02 10:50:54;;;;;;;26.97;24.97;;;;;;;;;;5075018;28;20471;-75
2023/06/02 10:53:21;;;;;;;26.47;24.20;;;;;;;;;;5074601;28;20512;-76
2023/06/02 10:55:48;;;;;;;26.27;24.47;;;;;;;;;;5074357;28;20490;-76
2023/06/02 10:58:15;;;;;;;26.47;24.57;;;;;;;;;;5075239;28;20710;-76
2023/06/02 11:00:45;;;;;;;26.23;24.13;;;;;;;;;;5075100;28;20468;-76
2023/06/02 11:03:32;;;;;;;27.23;25.13;;;;;;;;;;5075437;28;20579;-76
2023/06/02 11:06:32;;;;;;;25.17;23.47;;;;;;;;;;5073768;28;20754;-78
2023/06/02 11:09:20;;;;;;;26.67;24.40;;;;;;;;;;5076961;28;20955;-79
2023/06/02 11:11:55;;;;;;;25.87;24.03;;;;;;;;;;5076865;28;20426;-79
2023/06/02 11:14:22;;;;;;;26.30;24.20;;;;;;;;;;5077332;28;20442;-80
2023/06/02 11:17:08;;;;;;;25.53;23.23;;;;;;;;;;5076237;28;20824;-79
2023/06/02 11:19:49;;;;;;;26.87;24.57;;;;;;;;;;5076826;28;20434;-79
2023/06/02 11:22:19;;;;;;;26.10;24.27;;;;;;;;;;5069439;28;20445;-83
2023/06/02 11:24:46;;;;;;;26.03;24.20;;;;;;;;;;5076264;28;20844;-83
2023/06/02 11:27:14;;;;;;;26.30;24.20;;;;;;;;;;5074527;28;20477;-76
2023/06/02 11:29:44;;;;;;;25.60;23.70;;;;;;;;;;5073865;28;20488;-77
2023/06/02 11:32:11;;;;;;;25.37;23.50;;;;;;;;;;5073540;28;20839;-84
2023/06/02 11:34:38;;;;;;;25.57;23.30;;;;;;;;;;5076586;28;20486;-77
2023/06/02 11:37:12;;;;;;;27.77;25.43;;;;;;;;;;5073303;28;20480;-77
2023/06/02 11:39:49;;;;;;;27.50;25.30;;;;;;;;;;5074099;28;20474;-77
2023/06/02 11:42:18;;;;;;;25.83;23.63;;;;;;;;;;5074311;28;20421;-77
2023/06/02 11:44:48;;;;;;;26.27;23.47;;;;;;;;;;5074344;28;20436;-77
2023/06/02 11:47:18;;;;;;;25.87;24.00;;;;;;;;;;5072828;28;20463;-77
2023/06/02 11:49:45;;;;;;;31.70;24.80;;;;;;;;;;5073902;28;20474;-77
2023/06/02 11:52:12;;;;;;;26.37;24.47;;;;;;;;;;5074244;28;20431;-77
2023/06/02 11:54:49;;;;;;;26.47;24.37;;;;;;;;;;5073805;28;20448;-77
2023/06/02 11:57:27;;;;;;;24.47;22.60;;;;;;;;;;5072896;28;20500;-77
2023/06/02 12:00:06;;;;;;;24.17;22.50;;;;;;;;;;5073813;28;20811;-78
2023/06/02 12:02:33;;;;;;;25.20;23.33;;;;;;;;;;5073897;28;20447;-77
2023/06/02 12:05:00;;;;;;;24.07;22.20;;;;;;;;;;5074554;28;20418;-78
2023/06/02 12:07:30;;;;;;;23.73;21.83;;;;;;;;;;5073339;28;20522;-77
2023/06/02 12:09:57;;;;;;;24.43;22.90;;;;;;;;;;5074232;28;20513;-86
2023/06/02 12:12:24;;;;;;;24.60;22.77;;;;;;;;;;5074768;28;20478;-79
2023/06/02 12:14:53;;;;;;;25.17;23.03;;;;;;;;;;5074444;28;20443;-77
2023/06/02 12:17:20;;;;;;;24.80;23.10;;;;;;;;;;5073615;28;20448;-76
2023/06/02 12:19:57;;;;;;;24.33;22.83;;;;;;;;;;5072872;28;20458;-78
2023/06/02 12:22:24;;;;;;;25.53;23.40;;;;;;;;;;5075431;28;20436;-78
2023/06/02 12:24:50;;;;;;;24.70;22.67;;;;;;;;;;5074462;28;20482;-82
2023/06/02 12:27:22;;;;;;;25.40;23.30;;;;;;;;;;5074332;28;20452;-77
2023/06/02 12:29:49;;;;;;;23.33;21.83;;;;;;;;;;5074761;28;20473;-87
2023/06/02 12:32:29;;;;;;;24.37;22.90;;;;;;;;;;5076955;28;20427;-75
2023/06/02 12:34:56;;;;;;;26.13;24.43;;;;;;;;;;5073269;28;20775;-75
2023/06/02 12:37:23;;;;;;;25.77;24.17;;;;;;;;;;5072206;28;21019;-81
2023/06/02 12:39:50;;;;;;;25.17;23.50;;;;;;;;;;5071848;28;20459;-76
2023/06/02 12:42:20;;;;;;;25.40;23.60;;;;;;;;;;5072530;28;20431;-75
2023/06/02 12:44:48;;;;;;;25.97;24.30;;;;;;;;;;5073186;28;20552;-76
2023/06/02 12:47:16;;;;;;;26.93;24.60;;;;;;;;;;5072705;28;20434;-76
2023/06/02 12:49:47;;;;;;;26.20;23.97;;;;;;;;;;5071593;28;20463;-75
2023/06/02 12:52:14;;;;;;;24.80;23.10;;;;;;;;;;5072125;28;20443;-75
2023/06/02 12:54:41;;;;;;;25.93;23.47;;;;;;;;;;5072524;28;20427;-75
2023/06/02 12:57:08;;;;;;;25.40;23.40;;;;;;;;;;5072216;28;20455;-75
2023/06/02 12:59:35;;;;;;;24.47;22.60;;;;;;;;;;5072394;28;20460;-75
2023/06/02 13:02:02;;;;;;;24.63;23.07;;;;;;;;;;5072087;28;20828;-75
2023/06/02 13:04:29;;;;;;;23.70;22.30;;;;;;;;;;5072233;28;20461;-76
2023/06/02 13:07:00;;;;;;;24.40;22.40;;;;;;;;;;5071570;28;20963;-76
2023/06/02 13:09:27;;;;;;;23.53;22.03;;;;;;;;;;5072230;28;20495;-75
2023/06/02 13:11:54;;;;;;;23.73;22.13;;;;;;;;;;5071804;28;20466;-73
2023/06/02 13:14:21;;;;;;;24.10;22.10;;;;;;;;;;5072643;28;20433;-74
2023/06/02 13:16:48;;;;;;;24.60;22.60;;;;;;;;;;5072075;28;20453;-75
2023/06/02 13:19:15;;;;;;;24.07;22.30;;;;;;;;;;5071960;28;20427;-76
2023/06/02 13:21:42;;;;;;;23.63;21.80;;;;;;;;;;5072298;28;20427;-74
2023/06/02 13:24:11;;;;;;;24.00;22.17;;;;;;;;;;5072314;28;20459;-74
2023/06/02 13:26:38;;;;;;;24.10;22.40;;;;;;;;;;5071942;28;21201;-74
2023/06/02 13:29:05;;;;;;;23.20;21.50;;;;;;;;;;5072369;28;20423;-74
2023/06/02 13:31:32;;;;;;;23.97;22.13;;;;;;;;;;5072460;28;20512;-74
2023/06/02 13:33:59;;;;;;;24.80;22.80;;;;;;;;;;5072096;28;20424;-75
2023/06/02 13:36:26;;;;;;;24.77;22.27;;;;;;;;;;5071282;28;20496;-74
2023/06/02 13:38:53;;;;;;;25.10;23.20;;;;;;;;;;5071553;28;20998;-74
2023/06/02 13:41:21;;;;;;;25.63;23.30;;;;;;;;;;5072979;28;20462;-80
2023/06/02 13:43:48;;;;;;;24.40;22.10;;;;;;;;;;5074752;28;20427;-84
2023/06/02 13:46:15;;;;;;;23.53;21.93;;;;;;;;;;5073624;28;20466;-79
2023/06/02 13:48:42;;;;;;;23.00;21.50;;;;;;;;;;5084725;28;20430;-78
2023/06/02 13:51:09;;;;;;;23.30;21.73;;;;;;;;;;5093363;28;20519;-78
2023/06/02 13:53:36;;;;;;;24.27;22.47;;;;;;;;;;5093167;28;20423;-79
2023/06/02 13:56:03;;;;;;;25.10;22.90;;;;;;;;;;5074620;28;20412;-78
2023/06/02 13:58:35;;;;;;;22.93;21.27;;;;;;;;;;5076956;28;20412;-86
2023/06/02 14:01:02;;;;;;;24.40;22.60;;;;;;;;;;5074869;28;20460;-80
2023/06/02 14:03:29;;;;;;;23.50;21.70;;;;;;;;;;5074775;28;20519;-79
2023/06/02 14:05:56;;;;;;;23.63;21.73;;;;;;;;;;5074504;28;20424;-77
2023/06/02 14:08:23;;;;;;;22.93;21.37;;;;;;;;;;5073945;28;20783;-79
2023/06/02 14:10:50;;;;;;;23.87;21.97;;;;;;;;;;5073032;28;20567;-78
2023/06/02 14:13:17;;;;;;;23.17;21.57;;;;;;;;;;5073857;28;20502;-78
2023/06/02 14:15:46;;;;;;;23.97;22.07;;;;;;;;;;5073466;28;20469;-78
2023/06/02 14:18:13;;;;;;;22.60;21.10;;;;;;;;;;5073642;28;20434;-78
2023/06/02 14:20:40;;;;;;;23.17;21.50;;;;;;;;;;5076988;28;20443;-80
2023/06/02 14:23:07;;;;;;;23.53;21.93;;;;;;;;;;5078251;28;20478;-79